Time;durP1;ratioP1;P1;durP2;ratioP2;P2;SDS_P1;SDS_P2;PMS_P1;PMS_P2;Temp;Humidity;BMP_temperature;BMP_pressure;BME280_temperature;BME280_humidity;BME280_pressure;Samples;Min_cycle;Max_cycle;Signal;HPM_P1;HPM_P2
2023/01/01 00:00:14;;;;;;;94.40;64.10;;;5.20;99.90;;;;;;5050349;28;20923;-50
2023/01/01 00:02:40;;;;;;;39.90;32.37;;;5.00;99.90;;;;;;5049650;28;20512;-50
2023/01/01 00:05:08;;;;;;;28.73;24.03;;;5.40;99.90;;;;;;5048910;28;20503;-50
2023/01/01 00:07:36;;;;;;;92.37;62.87;;;5.70;99.90;;;;;;5048973;28;20539;-50
2023/01/01 00:12:48;;;;;;;109.17;75.87;;;5.00;99.90;;;;;;5050067;28;20786;-52
2023/01/01 00:15:15;;;;;;;124.80;82.53;;;5.10;99.90;;;;;;5049036;28;20524;-50
2023/01/01 00:17:42;;;;;;;126.27;85.77;;;5.00;99.90;;;;;;5050084;28;20524;-50
2023/01/01 00:20:10;;;;;;;113.13;78.20;;;4.90;99.90;;;;;;5050004;28;20910;-51
2023/01/01 00:22:38;;;;;;;67.93;50.87;;;4.60;99.90;;;;;;5049611;28;20531;-51
2023/01/01 00:25:06;;;;;;;83.77;52.20;;;4.80;99.90;;;;;;5049225;28;20472;-52
2023/01/01 00:27:33;;;;;;;54.93;37.47;;;5.10;99.90;;;;;;5049399;28;20475;-53
2023/01/01 00:30:00;;;;;;;50.17;38.20;;;5.20;99.90;;;;;;5049755;28;20536;-50
2023/01/01 00:32:27;;;;;;;141.67;84.77;;;5.40;99.90;;;;;;5047990;28;20443;-52
2023/01/01 00:34:54;;;;;;;127.47;88.07;;;5.10;99.90;;;;;;5049034;28;20506;-52
2023/01/01 00:37:21;;;;;;;82.03;57.90;;;4.60;99.90;;;;;;5049467;28;20531;-51
2023/01/01 00:39:49;;;;;;;85.93;59.13;;;4.50;99.90;;;;;;5049726;28;20567;-52
2023/01/01 00:42:16;;;;;;;100.83;68.37;;;4.40;99.90;;;;;;5049373;28;20539;-52
2023/01/01 00:44:43;;;;;;;72.97;53.30;;;4.50;99.90;;;;;;5048912;28;20511;-50
2023/01/01 00:47:10;;;;;;;72.40;50.13;;;4.60;99.90;;;;;;5049809;28;20480;-50
2023/01/01 00:49:37;;;;;;;54.73;41.23;;;4.70;99.90;;;;;;5049282;28;20527;-52
2023/01/01 00:52:04;;;;;;;59.73;43.80;;;4.60;99.90;;;;;;5049626;28;20536;-50
2023/01/01 00:54:31;;;;;;;110.70;75.37;;;4.50;99.90;;;;;;5048453;28;20522;-53
2023/01/01 00:56:59;;;;;;;135.47;96.57;;;4.50;99.90;;;;;;5049276;28;20473;-50
2023/01/01 00:59:26;;;;;;;118.23;81.03;;;4.80;99.90;;;;;;5048986;28;20904;-50
2023/01/01 01:01:53;;;;;;;93.73;64.40;;;5.00;99.90;;;;;;5049236;28;20473;-53
2023/01/01 01:04:20;;;;;;;56.07;40.00;;;4.90;99.90;;;;;;5048369;28;20554;-50
2023/01/01 01:06:47;;;;;;;56.77;40.63;;;5.10;99.90;;;;;;5049252;28;20534;-50
2023/01/01 01:09:13;;;;;;;115.60;80.57;;;5.40;99.90;;;;;;5049551;28;20473;-55
2023/01/01 01:11:40;;;;;;;153.80;112.00;;;5.20;99.90;;;;;;5049646;28;20521;-50
2023/01/01 01:14:09;;;;;;;169.63;110.63;;;5.00;99.90;;;;;;5048693;28;20492;-50
2023/01/01 01:16:35;;;;;;;135.57;93.90;;;4.70;99.90;;;;;;5050563;28;21008;-50
2023/01/01 01:19:04;;;;;;;77.57;53.90;;;4.60;99.90;;;;;;5053250;28;20508;-51
2023/01/01 01:21:32;;;;;;;76.40;51.33;;;4.60;99.90;;;;;;5052802;28;20493;-50
2023/01/01 01:24:00;;;;;;;34.03;24.70;;;4.70;99.90;;;;;;5052386;28;20491;-50
2023/01/01 01:26:30;;;;;;;38.93;27.10;;;4.70;99.90;;;;;;5052815;28;20535;-51
2023/01/01 01:28:57;;;;;;;23.17;17.87;;;4.80;99.90;;;;;;5053322;28;20471;-52
2023/01/01 01:31:29;;;;;;;26.33;20.00;;;4.90;99.90;;;;;;5051133;28;20609;-50
2023/01/01 01:33:56;;;;;;;21.00;17.47;;;5.00;99.90;;;;;;5052329;28;20548;-50
2023/01/01 01:36:24;;;;;;;26.40;16.27;;;5.20;99.90;;;;;;5052867;28;20523;-50
2023/01/01 01:38:51;;;;;;;21.43;15.63;;;5.10;99.90;;;;;;5052678;28;21000;-50
2023/01/01 01:41:20;;;;;;;20.43;16.00;;;4.80;99.90;;;;;;5052817;28;20535;-51
2023/01/01 01:43:53;;;;;;;26.07;20.23;;;4.90;99.90;;;;;;5051932;28;20514;-50
2023/01/01 01:46:24;;;;;;;23.50;17.07;;;4.90;99.90;;;;;;5052493;28;20529;-54
2023/01/01 01:48:54;;;;;;;24.13;15.80;;;5.00;99.90;;;;;;5053014;28;20529;-50
2023/01/01 01:51:27;;;;;;;14.90;12.13;;;5.10;99.90;;;;;;5052555;28;20531;-50
2023/01/01 01:53:57;;;;;;;27.50;19.60;;;5.00;99.90;;;;;;5051935;28;21055;-50
2023/01/01 01:56:29;;;;;;;32.67;24.10;;;5.10;99.90;;;;;;5051259;28;20524;-50
2023/01/01 01:58:55;;;;;;;72.60;50.23;;;5.20;99.90;;;;;;5052710;28;20476;-50
2023/01/01 02:01:23;;;;;;;36.73;27.73;;;4.70;99.90;;;;;;5051922;28;20899;-50
2023/01/01 02:03:56;;;;;;;66.87;42.77;;;4.80;99.90;;;;;;5051583;28;20556;-51
2023/01/01 02:06:24;;;;;;;40.40;30.50;;;4.90;99.90;;;;;;5051952;28;20475;-51
2023/01/01 02:08:52;;;;;;;28.90;20.73;;;5.00;99.90;;;;;;5051879;28;20523;-53
2023/01/01 02:11:19;;;;;;;34.33;26.13;;;5.20;99.90;;;;;;5052182;28;20475;-50
2023/01/01 02:13:46;;;;;;;38.63;25.97;;;5.10;99.90;;;;;;5051567;28;20555;-52
2023/01/01 02:16:19;;;;;;;27.43;16.70;;;4.60;99.90;;;;;;5052049;28;21037;-50
2023/01/01 02:18:52;;;;;;;16.97;13.40;;;4.70;99.90;;;;;;5052670;28;20808;-51
2023/01/01 02:21:25;;;;;;;16.90;12.50;;;5.50;99.90;;;;;;5051737;28;20564;-50
2023/01/01 02:24:05;;;;;;;13.03;10.13;;;5.90;99.90;;;;;;5051707;28;20552;-52
2023/01/01 02:26:42;;;;;;;11.90;6.80;;;6.00;99.90;;;;;;5051884;28;20443;-51
2023/01/01 02:29:37;;;;;;;95.80;67.17;;;6.10;99.90;;;;;;5051074;28;20820;-52
2023/01/01 02:32:08;;;;;;;89.67;60.40;;;5.30;99.90;;;;;;5050247;28;20448;-50
2023/01/01 02:34:38;;;;;;;87.30;58.20;;;4.70;99.90;;;;;;5051065;28;20492;-50
2023/01/01 02:37:08;;;;;;;66.60;45.37;;;4.60;99.90;;;;;;5051972;28;20527;-53
2023/01/01 02:39:39;;;;;;;26.17;20.47;;;4.50;99.90;;;;;;5051141;28;20924;-50
2023/01/01 02:42:08;;;;;;;14.70;11.07;;;4.80;99.90;;;;;;5051933;28;20871;-50
2023/01/01 02:44:41;;;;;;;15.70;12.73;;;5.00;99.90;;;;;;5101644;22;20468;-92
2023/01/01 02:47:11;;;;;;;17.87;11.67;;;4.90;99.90;;;;;;5092855;28;20497;-89
2023/01/01 02:49:46;;;;;;;5.90;4.27;;;5.10;99.90;;;;;;5081693;28;20455;-92
2023/01/01 02:52:25;;;;;;;11.50;9.03;;;5.30;99.90;;;;;;5080957;28;20505;-89
2023/01/01 02:54:59;;;;;;;19.70;16.13;;;5.30;99.90;;;;;;5084562;28;20469;-89
2023/01/01 02:57:36;;;;;;;19.53;15.80;;;5.00;99.90;;;;;;5089675;28;20685;-89
2023/01/01 03:00:26;;;;;;;10.53;9.07;;;4.90;99.90;;;;;;5084572;28;20470;-90
2023/01/01 03:03:14;;;;;;;8.07;6.40;;;5.20;99.90;;;;;;5084686;28;20441;-89
2023/01/01 03:08:40;;;;;;;30.47;20.47;;;5.40;99.90;;;;;;5075515;28;20426;-90
2023/01/01 03:11:11;;;;;;;37.30;27.90;;;5.10;99.90;;;;;;5094614;28;20498;-89
2023/01/01 03:13:45;;;;;;;28.43;21.53;;;4.90;99.90;;;;;;5083977;28;20427;-91
2023/01/01 03:16:18;;;;;;;18.33;12.37;;;4.90;99.90;;;;;;5082437;28;20923;-89
2023/01/01 03:19:09;;;;;;;14.60;9.80;;;5.10;99.90;;;;;;5084539;28;20463;-88
2023/01/01 03:21:42;;;;;;;13.53;8.97;;;5.20;99.90;;;;;;5079937;28;20471;-91
2023/01/01 03:24:12;;;;;;;31.30;22.00;;;5.40;99.90;;;;;;5092871;22;20553;-49
2023/01/01 03:26:41;;;;;;;36.83;26.37;;;4.90;99.90;;;;;;5050822;28;20444;-50
2023/01/01 03:29:11;;;;;;;45.07;31.20;;;4.80;99.90;;;;;;5050797;28;20470;-49
2023/01/01 03:31:43;;;;;;;40.90;29.23;;;4.50;99.90;;;;;;5049818;28;20659;-49
2023/01/01 03:34:16;;;;;;;19.37;14.17;;;4.40;99.90;;;;;;5050291;28;20464;-50
2023/01/01 03:36:47;;;;;;;15.63;11.77;;;4.30;99.90;;;;;;5050838;28;20530;-49
2023/01/01 03:39:18;;;;;;;11.60;8.70;;;4.50;99.90;;;;;;5051551;28;20484;-47
2023/01/01 03:41:49;;;;;;;11.63;8.30;;;5.00;99.90;;;;;;5050585;28;20560;-49
2023/01/01 03:44:21;;;;;;;11.33;9.60;;;5.30;99.90;;;;;;5049643;28;20474;-48
2023/01/01 03:46:50;;;;;;;22.10;15.43;;;5.30;99.90;;;;;;5051049;28;20527;-48
2023/01/01 03:49:20;;;;;;;27.17;21.00;;;4.90;99.90;;;;;;5050414;28;20500;-49
2023/01/01 03:52:11;;;;;;;13.57;12.23;;;4.40;99.90;;;;;;5050594;28;20481;-49
2023/01/01 03:54:45;;;;;;;11.93;8.57;;;4.50;99.90;;;;;;5049410;28;20479;-51
2023/01/01 03:57:19;;;;;;;9.60;7.67;;;4.80;99.90;;;;;;5050019;28;20530;-49
2023/01/01 03:59:53;;;;;;;9.10;6.90;;;4.90;99.90;;;;;;5050573;28;21003;-48
2023/01/01 04:02:27;;;;;;;8.43;6.40;;;5.20;99.90;;;;;;5049275;28;20484;-48
2023/01/01 04:04:54;;;;;;;10.50;7.10;;;5.40;99.90;;;;;;5049461;28;20490;-49
2023/01/01 04:07:22;;;;;;;10.03;6.90;;;5.40;99.90;;;;;;5049801;28;20527;-49
2023/01/01 04:09:52;;;;;;;9.90;7.10;;;5.40;99.90;;;;;;5050072;28;20951;-48
2023/01/01 04:12:19;;;;;;;14.80;9.87;;;4.90;99.90;;;;;;5049717;28;20526;-48
2023/01/01 04:14:46;;;;;;;16.77;11.87;;;4.80;99.90;;;;;;5049367;28;20543;-48
2023/01/01 04:17:13;;;;;;;15.93;12.33;;;4.60;99.90;;;;;;5048948;28;20523;-48
2023/01/01 04:19:41;;;;;;;13.40;7.93;;;4.50;99.90;;;;;;5049839;28;20483;-49
2023/01/01 04:22:08;;;;;;;12.17;8.00;;;4.80;99.90;;;;;;5049815;28;20563;-49
2023/01/01 04:24:35;;;;;;;9.47;6.87;;;4.80;99.90;;;;;;5047143;28;20552;-49
2023/01/01 04:27:02;;;;;;;7.97;5.60;;;5.00;99.90;;;;;;5048374;28;20476;-49
2023/01/01 04:29:29;;;;;;;6.50;5.40;;;5.20;99.90;;;;;;5048194;28;20531;-47
2023/01/01 04:31:56;;;;;;;6.77;5.17;;;5.60;99.90;;;;;;5047619;28;20501;-49
2023/01/01 04:34:23;;;;;;;32.60;24.27;;;5.70;99.90;;;;;;5047536;28;20544;-48
2023/01/01 04:36:51;;;;;;;34.10;26.40;;;5.10;99.90;;;;;;5048632;28;20511;-50
2023/01/01 04:39:18;;;;;;;32.40;22.37;;;4.30;99.90;;;;;;5048308;28;20443;-49
2023/01/01 04:41:47;;;;;;;29.57;23.80;;;3.90;99.90;;;;;;5048321;28;20575;-49
2023/01/01 04:44:14;;;;;;;22.03;18.80;;;3.80;99.90;;;;;;5047671;28;20504;-47
2023/01/01 04:46:41;;;;;;;22.40;14.70;;;4.00;99.90;;;;;;5045179;28;20856;-49
2023/01/01 04:49:08;;;;;;;11.57;9.30;;;4.20;99.90;;;;;;5049110;28;20449;-49
2023/01/01 04:51:35;;;;;;;8.03;5.60;;;4.50;99.90;;;;;;5052020;28;20905;-49
2023/01/01 04:54:03;;;;;;;6.87;5.40;;;4.80;99.90;;;;;;5054332;28;20503;-49
2023/01/01 04:56:30;;;;;;;6.97;5.63;;;5.10;99.90;;;;;;5054336;28;20480;-48
2023/01/01 04:58:57;;;;;;;8.63;6.53;;;5.10;99.90;;;;;;5054957;28;20937;-49
2023/01/01 05:01:26;;;;;;;15.47;10.20;;;5.10;99.90;;;;;;5054534;28;20522;-49
2023/01/01 05:03:53;;;;;;;16.30;11.00;;;4.80;99.90;;;;;;5054276;28;20897;-50
2023/01/01 05:06:21;;;;;;;13.03;9.80;;;4.50;99.90;;;;;;5051891;28;20538;-52
2023/01/01 05:08:50;;;;;;;15.30;11.20;;;4.70;99.90;;;;;;5054941;28;20440;-48
2023/01/01 05:11:20;;;;;;;15.83;8.80;;;4.80;99.90;;;;;;5054491;28;20942;-50
2023/01/01 05:13:49;;;;;;;10.93;7.00;;;4.90;99.90;;;;;;5054282;28;20456;-51
2023/01/01 05:16:17;;;;;;;6.97;5.93;;;4.80;99.90;;;;;;5054095;28;20980;-50
2023/01/01 05:18:45;;;;;;;7.20;5.40;;;4.90;99.90;;;;;;5054748;28;20478;-49
2023/01/01 05:21:14;;;;;;;5.60;4.90;;;5.00;99.90;;;;;;5053855;28;20523;-49
2023/01/01 05:23:41;;;;;;;8.93;6.23;;;5.20;99.90;;;;;;5054148;28;20873;-48
2023/01/01 05:26:12;;;;;;;13.53;5.87;;;5.20;99.90;;;;;;5054709;28;20474;-49
2023/01/01 05:28:41;;;;;;;6.73;5.47;;;4.90;99.90;;;;;;5054676;28;20520;-49
2023/01/01 05:31:10;;;;;;;7.30;5.03;;;4.90;99.90;;;;;;5054603;28;20479;-49
2023/01/01 05:33:37;;;;;;;5.70;4.43;;;4.80;99.90;;;;;;5053292;28;20481;-49
2023/01/01 05:36:07;;;;;;;6.30;4.43;;;4.60;99.90;;;;;;5054565;28;20638;-49
2023/01/01 05:38:35;;;;;;;5.27;4.07;;;4.50;99.90;;;;;;5054596;28;20752;-50
2023/01/01 05:41:05;;;;;;;5.33;3.70;;;4.50;99.90;;;;;;5052022;28;20529;-49
2023/01/01 05:43:32;;;;;;;5.60;3.53;;;4.80;99.90;;;;;;5053468;28;20973;-51
2023/01/01 05:46:02;;;;;;;4.63;3.63;;;5.00;99.90;;;;;;5053919;28;20478;-49
2023/01/01 05:48:29;;;;;;;4.53;3.80;;;5.20;99.90;;;;;;5054573;28;20436;-49
2023/01/01 05:51:02;;;;;;;4.97;4.30;;;5.20;99.90;;;;;;5054501;28;20519;-50
2023/01/01 05:53:30;;;;;;;6.40;3.37;;;5.20;99.90;;;;;;5051815;28;20845;-48
2023/01/01 05:55:57;;;;;;;5.77;3.83;;;5.00;99.90;;;;;;5054051;28;20451;-49
2023/01/01 05:58:24;;;;;;;6.60;4.10;;;4.90;99.90;;;;;;5054085;28;20540;-51
2023/01/01 06:00:52;;;;;;;5.77;4.33;;;4.80;99.90;;;;;;5054716;28;20469;-51
2023/01/01 06:03:20;;;;;;;6.33;4.03;;;4.90;99.90;;;;;;5050878;28;20479;-50
2023/01/01 06:05:47;;;;;;;5.30;2.80;;;5.00;99.90;;;;;;5052355;28;20483;-49
2023/01/01 06:08:15;;;;;;;4.07;3.10;;;5.10;99.90;;;;;;5051905;28;20879;-45
2023/01/01 06:10:41;;;;;;;6.13;3.97;;;5.20;99.90;;;;;;5052417;28;20953;-50
2023/01/01 06:13:08;;;;;;;4.67;3.20;;;5.10;99.90;;;;;;5051749;28;20893;-50
2023/01/01 06:15:35;;;;;;;6.90;4.53;;;5.10;99.90;;;;;;5051139;28;20483;-48
2023/01/01 06:18:02;;;;;;;4.40;3.70;;;4.90;99.90;;;;;;5052057;28;20524;-49
2023/01/01 06:20:30;;;;;;;4.20;3.57;;;4.90;99.90;;;;;;5051851;28;20574;-49
2023/01/01 06:22:57;;;;;;;6.23;5.63;;;5.00;99.90;;;;;;5051741;28;20528;-50
2023/01/01 06:25:24;;;;;;;8.90;6.77;;;5.10;99.90;;;;;;5051536;28;20505;-51
2023/01/01 06:27:51;;;;;;;6.30;5.00;;;5.00;99.90;;;;;;5052046;28;20569;-49
2023/01/01 06:30:18;;;;;;;3.80;3.37;;;5.00;99.90;;;;;;5051538;28;20537;-49
2023/01/01 06:32:45;;;;;;;7.23;6.00;;;4.80;99.90;;;;;;5050753;28;20527;-48
2023/01/01 06:35:12;;;;;;;5.90;5.00;;;4.70;99.90;;;;;;5051104;28;20501;-50
2023/01/01 06:37:40;;;;;;;5.90;4.77;;;4.20;99.90;;;;;;5052094;28;20437;-48
2023/01/01 06:40:08;;;;;;;5.10;3.93;;;4.40;99.90;;;;;;5050848;28;20896;-48
2023/01/01 06:42:35;;;;;;;3.20;2.90;;;4.60;99.90;;;;;;5050753;28;20559;-50
2023/01/01 06:45:02;;;;;;;4.10;3.50;;;4.70;99.90;;;;;;5049217;28;20503;-49
2023/01/01 06:47:29;;;;;;;4.73;4.10;;;4.70;99.90;;;;;;5050948;28;20535;-51
2023/01/01 06:49:56;;;;;;;6.23;4.50;;;5.00;99.90;;;;;;5052162;28;20528;-47
2023/01/01 06:52:23;;;;;;;4.90;3.17;;;5.40;99.90;;;;;;5051171;28;20480;-49
2023/01/01 06:54:51;;;;;;;8.43;6.90;;;5.40;99.90;;;;;;5050563;28;20544;-46
2023/01/01 06:57:18;;;;;;;14.70;9.30;;;4.90;99.90;;;;;;5050424;28;20544;-47
2023/01/01 06:59:45;;;;;;;10.00;7.63;;;4.20;99.90;;;;;;5051706;28;20808;-47
2023/01/01 07:02:12;;;;;;;7.00;5.80;;;3.90;99.90;;;;;;5051681;28;20565;-46
2023/01/01 07:04:39;;;;;;;5.47;4.40;;;3.80;99.90;;;;;;5050550;28;20466;-46
2023/01/01 07:07:06;;;;;;;6.90;5.00;;;4.30;99.90;;;;;;5050062;28;20531;-47
2023/01/01 07:09:33;;;;;;;5.00;3.83;;;4.60;99.90;;;;;;5050278;28;20538;-49
2023/01/01 07:12:01;;;;;;;4.10;3.40;;;4.80;99.90;;;;;;5050764;28;20519;-49
2023/01/01 07:14:28;;;;;;;7.50;5.40;;;4.90;99.90;;;;;;5048523;28;20543;-47
2023/01/01 07:16:55;;;;;;;3.40;3.10;;;5.20;99.90;;;;;;5051306;28;20873;-47
2023/01/01 07:19:22;;;;;;;5.27;4.03;;;5.20;99.90;;;;;;5050598;28;20885;-46
2023/01/01 07:21:53;;;;;;;4.60;3.23;;;4.70;99.90;;;;;;5050912;28;20527;-48
2023/01/01 07:24:21;;;;;;;4.33;3.57;;;4.60;99.90;;;;;;5049674;28;20475;-48
2023/01/01 07:26:48;;;;;;;8.47;5.93;;;4.40;99.90;;;;;;5051322;28;20527;-48
2023/01/01 07:29:17;;;;;;;6.27;4.27;;;4.20;99.90;;;;;;5050472;28;20455;-48
2023/01/01 07:31:45;;;;;;;2.70;2.50;;;4.20;99.90;;;;;;5049748;28;20542;-48
2023/01/01 07:34:14;;;;;;;7.60;4.20;;;4.60;99.90;;;;;;5050099;28;20463;-48
2023/01/01 07:36:41;;;;;;;6.53;4.17;;;4.50;99.90;;;;;;5050900;28;20502;-48
2023/01/01 07:39:09;;;;;;;4.07;3.67;;;4.30;99.90;;;;;;5050271;28;20448;-49
2023/01/01 07:41:36;;;;;;;12.70;7.33;;;4.60;99.90;;;;;;5049677;28;20587;-50
2023/01/01 07:44:03;;;;;;;8.70;6.10;;;4.90;99.90;;;;;;5049160;28;20544;-48
2023/01/01 07:46:34;;;;;;;10.07;5.53;;;5.00;99.90;;;;;;5048651;28;20484;-49
2023/01/01 07:49:02;;;;;;;57.17;26.60;;;5.20;99.90;;;;;;5050427;28;20979;-48
2023/01/01 07:51:29;;;;;;;32.13;18.73;;;5.30;99.90;;;;;;5050380;28;20877;-48
2023/01/01 07:53:56;;;;;;;20.17;11.60;;;5.30;99.90;;;;;;5049898;28;20555;-48
2023/01/01 07:56:22;;;;;;;12.53;6.93;;;5.40;99.90;;;;;;5049771;28;20893;-50
2023/01/01 07:58:49;;;;;;;12.87;10.57;;;5.30;99.90;;;;;;5050711;28;20478;-48
2023/01/01 08:01:17;;;;;;;13.07;9.27;;;5.00;99.90;;;;;;5049690;28;21079;-48
2023/01/01 08:03:51;;;;;;;14.73;10.40;;;4.70;99.90;;;;;;5049695;28;20552;-48
2023/01/01 08:06:18;;;;;;;7.77;6.27;;;4.70;99.90;;;;;;5049663;28;20816;-48
2023/01/01 08:08:45;;;;;;;6.40;4.80;;;4.70;99.90;;;;;;5050069;28;20479;-48
2023/01/01 08:11:12;;;;;;;8.00;6.17;;;4.80;99.90;;;;;;5049261;28;20535;-49
2023/01/01 08:13:39;;;;;;;5.80;4.83;;;5.00;99.90;;;;;;5048753;28;20469;-48
2023/01/01 08:16:06;;;;;;;7.60;6.77;;;5.00;99.90;;;;;;5048887;28;20754;-48
2023/01/01 08:18:33;;;;;;;9.40;6.73;;;5.00;99.90;;;;;;5049459;28;20473;-48
2023/01/01 08:21:01;;;;;;;11.03;9.77;;;4.90;99.90;;;;;;5050273;28;20483;-48
2023/01/01 08:23:28;;;;;;;10.30;7.90;;;4.40;99.90;;;;;;5049013;28;20886;-50
2023/01/01 08:25:59;;;;;;;7.67;5.07;;;4.40;99.90;;;;;;5049108;28;20536;-49
2023/01/01 08:28:26;;;;;;;13.10;9.43;;;4.70;99.90;;;;;;5049573;28;20692;-50
2023/01/01 08:30:52;;;;;;;9.90;7.27;;;5.00;99.90;;;;;;5049943;28;20532;-48
2023/01/01 08:33:20;;;;;;;13.03;9.83;;;5.30;99.90;;;;;;5047682;28;20862;-48
2023/01/01 08:35:47;;;;;;;8.90;7.97;;;5.40;99.90;;;;;;5049268;28;20456;-48
2023/01/01 08:38:15;;;;;;;9.67;7.80;;;5.40;99.90;;;;;;5049184;28;20551;-50
2023/01/01 08:40:42;;;;;;;5.90;4.50;;;5.50;99.90;;;;;;5048914;28;20992;-49
2023/01/01 08:43:09;;;;;;;3.90;3.03;;;5.60;99.90;;;;;;5048225;28;20552;-48
2023/01/01 08:45:35;;;;;;;5.80;3.97;;;5.60;99.90;;;;;;5048373;28;20528;-51
2023/01/01 08:48:02;;;;;;;3.80;3.50;;;5.50;99.90;;;;;;5049799;28;20524;-50
2023/01/01 08:50:29;;;;;;;6.53;3.60;;;5.50;99.90;;;;;;5049167;28;20531;-50
2023/01/01 08:52:58;;;;;;;4.67;4.27;;;5.30;99.90;;;;;;5049142;28;20441;-48
2023/01/01 08:55:26;;;;;;;6.40;5.00;;;5.10;99.90;;;;;;5048210;28;20472;-49
2023/01/01 08:57:53;;;;;;;4.83;4.40;;;5.00;99.90;;;;;;5049602;28;20528;-48
2023/01/01 09:00:20;;;;;;;5.90;4.23;;;5.00;99.90;;;;;;5049383;28;20532;-48
2023/01/01 09:02:47;;;;;;;5.33;3.50;;;5.20;99.90;;;;;;5049603;28;20563;-48
2023/01/01 09:05:14;;;;;;;4.30;2.60;;;5.40;99.90;;;;;;5047395;28;21054;-44
2023/01/01 09:07:41;;;;;;;7.00;5.80;;;5.50;99.90;;;;;;5048611;28;20517;-48
2023/01/01 09:10:09;;;;;;;7.07;5.93;;;5.00;99.90;;;;;;5048698;28;20492;-48
2023/01/01 09:12:37;;;;;;;8.40;7.23;;;4.80;99.90;;;;;;5048081;28;20981;-48
2023/01/01 09:15:05;;;;;;;9.07;7.43;;;4.80;99.90;;;;;;5047462;28;20554;-49
2023/01/01 09:17:32;;;;;;;6.40;5.70;;;4.80;99.90;;;;;;5048651;28;20542;-49
2023/01/01 09:19:58;;;;;;;8.20;4.60;;;4.90;99.90;;;;;;5048794;28;20523;-49
2023/01/01 09:22:25;;;;;;;15.37;11.63;;;5.10;99.90;;;;;;5048584;28;20556;-48
2023/01/01 09:24:52;;;;;;;6.60;5.10;;;5.10;99.90;;;;;;5047883;28;21277;-49
2023/01/01 09:27:19;;;;;;;4.27;3.60;;;5.00;99.90;;;;;;5048356;28;20546;-48
2023/01/01 09:29:47;;;;;;;7.70;5.73;;;5.30;99.90;;;;;;5048897;28;20540;-48
2023/01/01 09:32:14;;;;;;;13.30;9.90;;;5.30;99.90;;;;;;5047243;28;21144;-45
2023/01/01 09:34:41;;;;;;;7.30;6.53;;;5.00;99.90;;;;;;5047537;28;20551;-48
2023/01/01 09:37:08;;;;;;;12.17;6.40;;;5.00;99.90;;;;;;5049167;28;20487;-48
2023/01/01 09:39:35;;;;;;;7.57;6.77;;;5.30;99.90;;;;;;5053221;28;20541;-50
2023/01/01 09:42:26;;;;;;;8.10;6.50;;;5.50;99.90;;;;;;5052895;28;20916;-48
2023/01/01 09:45:11;;;;;;;12.10;9.03;;;5.50;99.90;;;;;;5051557;28;20547;-46
2023/01/01 09:47:41;;;;;;;13.13;9.10;;;4.40;99.90;;;;;;5052574;28;20475;-48
2023/01/01 09:50:13;;;;;;;9.67;8.47;;;4.00;99.90;;;;;;5052970;28;20885;-50
2023/01/01 09:52:45;;;;;;;8.13;7.30;;;4.10;99.90;;;;;;5052893;28;20528;-48
2023/01/01 09:55:34;;;;;;;8.10;7.30;;;4.30;99.90;;;;;;5052092;28;20545;-47
2023/01/01 09:58:01;;;;;;;7.33;6.63;;;4.60;99.90;;;;;;5052071;28;21026;-48
2023/01/01 10:00:33;;;;;;;7.47;5.83;;;4.80;99.90;;;;;;5051644;28;20536;-48
2023/01/01 10:03:16;;;;;;;8.07;6.60;;;5.00;99.90;;;;;;5037969;28;20866;-48
2023/01/01 10:05:52;;;;;;;7.27;5.53;;;5.20;99.90;;;;;;5051525;28;20523;-48
2023/01/01 10:08:30;;;;;;;7.20;4.93;;;5.40;99.90;;;;;;5051639;28;20444;-48
2023/01/01 10:11:09;;;;;;;5.70;4.40;;;5.40;99.90;;;;;;5051997;28;20499;-49
2023/01/01 10:13:40;;;;;;;5.80;5.20;;;5.50;99.90;;;;;;5050247;28;20544;-48
2023/01/01 10:16:17;;;;;;;4.73;3.93;;;5.70;99.90;;;;;;5051534;28;20924;-49
2023/01/01 10:18:46;;;;;;;5.73;4.60;;;5.90;99.90;;;;;;5051797;28;20462;-48
2023/01/01 10:21:17;;;;;;;8.67;6.83;;;6.20;99.90;;;;;;5051676;28;20465;-51
2023/01/01 10:23:49;;;;;;;9.90;6.60;;;6.40;99.90;;;;;;5050005;28;20512;-48
2023/01/01 10:26:19;;;;;;;6.20;5.60;;;6.40;99.90;;;;;;5050444;28;20448;-48
2023/01/01 10:28:55;;;;;;;11.83;9.40;;;6.30;99.90;;;;;;5051045;28;20529;-50
2023/01/01 10:31:29;;;;;;;11.10;9.60;;;6.40;99.90;;;;;;5047363;28;20437;-49
2023/01/01 10:33:57;;;;;;;11.03;7.40;;;6.50;99.90;;;;;;5050362;28;20453;-50
2023/01/01 10:36:25;;;;;;;8.77;6.10;;;6.60;99.90;;;;;;5050414;28;20525;-49
2023/01/01 10:38:52;;;;;;;7.93;6.30;;;6.80;99.90;;;;;;5050756;28;20866;-49
2023/01/01 10:41:19;;;;;;;7.20;6.00;;;6.90;99.90;;;;;;5050646;28;20528;-48
2023/01/01 10:43:47;;;;;;;13.40;5.43;;;7.00;99.90;;;;;;5049563;28;20481;-49
2023/01/01 10:46:20;;;;;;;5.30;4.60;;;7.10;99.90;;;;;;5049709;28;20525;-46
2023/01/01 10:49:09;;;;;;;6.63;5.60;;;7.10;99.90;;;;;;5049935;28;20442;-48
2023/01/01 10:51:39;;;;;;;5.07;4.50;;;7.20;99.90;;;;;;5050049;28;21000;-48
2023/01/01 10:54:06;;;;;;;6.40;4.77;;;7.20;99.90;;;;;;5049320;28;20485;-50
2023/01/01 10:56:42;;;;;;;5.00;4.50;;;7.30;99.90;;;;;;5051095;28;20524;-50
2023/01/01 10:59:34;;;;;;;6.30;4.63;;;7.30;99.90;;;;;;5051412;28;20491;-49
2023/01/01 11:02:19;;;;;;;4.90;4.50;;;7.50;99.90;;;;;;5052000;28;20440;-50
2023/01/01 11:04:48;;;;;;;8.43;5.37;;;7.60;99.90;;;;;;5050148;28;20492;-50
2023/01/01 11:07:21;;;;;;;5.00;4.50;;;7.80;99.90;;;;;;5047240;28;21314;-46
2023/01/01 11:09:49;;;;;;;6.90;4.60;;;7.90;99.90;;;;;;5049929;28;20466;-49
2023/01/01 11:12:21;;;;;;;7.30;5.90;;;7.80;99.90;;;;;;5050062;28;20469;-48
2023/01/01 11:14:52;;;;;;;10.10;6.70;;;7.80;99.90;;;;;;5048493;28;20548;-48
2023/01/01 11:17:22;;;;;;;8.13;6.20;;;7.80;99.90;;;;;;5049827;28;20791;-48
2023/01/01 11:19:52;;;;;;;7.07;5.37;;;7.80;99.90;;;;;;5050038;28;20465;-50
2023/01/01 11:22:40;;;;;;;6.70;4.30;;;7.90;99.90;;;;;;5049368;28;20750;-48
2023/01/01 11:25:19;;;;;;;7.67;6.10;;;8.00;99.90;;;;;;5048322;28;20519;-48
2023/01/01 11:27:46;;;;;;;10.77;6.90;;;8.30;99.90;;;;;;5047568;28;20540;-48
2023/01/01 11:30:26;;;;;;;9.50;6.23;;;8.30;99.90;;;;;;5046050;28;20496;-49
2023/01/01 11:32:57;;;;;;;8.37;6.43;;;8.20;99.90;;;;;;5044868;28;20443;-46
2023/01/01 11:35:29;;;;;;;8.27;6.47;;;8.30;99.90;;;;;;5046543;28;21072;-49
2023/01/01 11:37:57;;;;;;;8.37;7.47;;;8.30;99.90;;;;;;5047827;28;20875;-49
2023/01/01 11:40:28;;;;;;;8.80;6.20;;;8.30;99.90;;;;;;5046638;28;20542;-49
2023/01/01 11:42:59;;;;;;;6.10;5.40;;;8.40;99.90;;;;;;5047345;28;20824;-48
2023/01/01 11:45:33;;;;;;;6.20;5.60;;;8.30;99.90;;;;;;5045573;28;20461;-49
2023/01/01 11:48:02;;;;;;;6.43;5.00;;;8.30;99.90;;;;;;5047097;28;20456;-49
2023/01/01 11:50:33;;;;;;;7.17;5.03;;;8.30;99.90;;;;;;5046790;28;20478;-49
2023/01/01 11:53:19;;;;;;;4.30;3.90;;;8.40;99.90;;;;;;5046330;28;20521;-48
2023/01/01 11:55:50;;;;;;;5.17;3.97;;;8.50;99.90;;;;;;5046713;28;20530;-49
2023/01/01 11:58:22;;;;;;;5.77;4.20;;;8.60;99.90;;;;;;5047081;28;20528;-51
2023/01/01 12:00:52;;;;;;;4.70;4.10;;;8.70;99.90;;;;;;5053409;28;20539;-50
2023/01/01 12:03:25;;;;;;;4.70;4.20;;;8.80;99.90;;;;;;5066110;28;20567;-49
2023/01/01 12:06:00;;;;;;;6.63;3.67;;;9.00;99.90;;;;;;5056613;28;20444;-49
2023/01/01 12:08:34;;;;;;;9.50;6.97;;;9.20;99.90;;;;;;5059869;28;20547;-48
2023/01/01 12:11:09;;;;;;;4.40;3.80;;;9.30;99.90;;;;;;5059769;28;20449;-48
2023/01/01 12:13:46;;;;;;;5.97;3.87;;;9.30;99.90;;;;;;5045391;28;20542;-48
2023/01/01 12:16:16;;;;;;;4.60;3.47;;;9.30;99.90;;;;;;5031054;28;20540;-49
2023/01/01 12:18:48;;;;;;;4.67;3.30;;;9.30;99.90;;;;;;5047215;28;20473;-49
2023/01/01 12:21:22;;;;;;;3.90;3.00;;;9.20;99.90;;;;;;5046749;28;20507;-47
2023/01/01 12:23:49;;;;;;;3.33;2.63;;;9.20;99.90;;;;;;5045934;28;21075;-47
2023/01/01 12:26:22;;;;;;;4.10;3.10;;;9.20;99.90;;;;;;5046199;28;20484;-48
2023/01/01 12:29:14;;;;;;;7.30;3.87;;;9.10;99.90;;;;;;5046161;28;20561;-51
2023/01/01 12:31:48;;;;;;;4.47;3.63;;;9.30;99.90;;;;;;5045543;28;20531;-49
2023/01/01 12:34:21;;;;;;;4.50;3.60;;;9.40;99.90;;;;;;5045217;28;20544;-47
2023/01/01 12:36:59;;;;;;;3.80;2.97;;;9.40;99.90;;;;;;5046690;28;20511;-48
2023/01/01 12:39:57;;;;;;;3.53;2.87;;;9.30;99.90;;;;;;5046221;28;20532;-50
2023/01/01 12:42:35;;;;;;;2.70;2.30;;;9.30;99.90;;;;;;5045811;28;20477;-49
2023/01/01 12:45:28;;;;;;;3.40;3.10;;;9.20;99.90;;;;;;5045265;28;20560;-50
2023/01/01 12:48:03;;;;;;;4.27;3.67;;;9.20;99.90;;;;;;5046737;28;20456;-49
2023/01/01 12:50:40;;;;;;;3.37;3.07;;;9.20;99.90;;;;;;5046135;28;20940;-47
2023/01/01 12:53:20;;;;;;;3.37;2.63;;;9.10;99.90;;;;;;5045776;28;20556;-47
2023/01/01 12:56:09;;;;;;;3.07;2.70;;;9.10;99.90;;;;;;5046236;28;20445;-51
2023/01/01 12:58:40;;;;;;;3.83;2.50;;;9.00;99.90;;;;;;5046127;28;20532;-49
2023/01/01 13:01:12;;;;;;;4.80;3.17;;;9.20;99.90;;;;;;5059146;28;20524;-48
2023/01/01 13:03:47;;;;;;;4.23;2.93;;;9.30;99.90;;;;;;5025672;28;20486;-50
2023/01/01 13:06:17;;;;;;;3.10;2.80;;;9.40;99.90;;;;;;5025817;28;20480;-45
2023/01/01 13:08:52;;;;;;;4.60;3.57;;;9.30;99.90;;;;;;5030118;28;20519;-48